sensor_id;sensor_type;location;lat;lon;timestamp;P1;durP1;ratioP1;P2;durP2;ratioP2
23472;SDS011;11909;52.516;13.564;2022-12-10T00:01:21;25.05;;;13.52;;
23472;SDS011;11909;52.516;13.564;2022-12-10T00:03:51;23.75;;;13.93;;
23472;SDS011;11909;52.516;13.564;2022-12-10T00:06:20;23.53;;;13.53;;
23472;SDS011;11909;52.516;13.564;2022-12-10T00:08:49;24.60;;;13.38;;
23472;SDS011;11909;52.516;13.564;2022-12-10T00:11:18;21.83;;;13.00;;
23472;SDS011;11909;52.516;13.564;2022-12-10T00:13:48;26.10;;;14.00;;
23472;SDS011;11909;52.516;13.564;2022-12-10T00:16:17;28.40;;;14.95;;
23472;SDS011;11909;52.516;13.564;2022-12-10T00:18:47;25.88;;;14.60;;
23472;SDS011;11909;52.516;13.564;2022-12-10T00:21:18;28.93;;;15.83;;
23472;SDS011;11909;52.516;13.564;2022-12-10T00:23:50;29.05;;;14.80;;
23472;SDS011;11909;52.516;13.564;2022-12-10T00:26:19;29.92;;;16.20;;
23472;SDS011;11909;52.516;13.564;2022-12-10T00:28:48;28.88;;;15.45;;
23472;SDS011;11909;52.516;13.564;2022-12-10T00:31:17;28.58;;;13.98;;
23472;SDS011;11909;52.516;13.564;2022-12-10T00:33:47;29.45;;;14.38;;
23472;SDS011;11909;52.516;13.564;2022-12-10T00:36:16;28.67;;;15.88;;
23472;SDS011;11909;52.516;13.564;2022-12-10T00:38:47;31.30;;;14.25;;
23472;SDS011;11909;52.516;13.564;2022-12-10T00:41:16;26.55;;;14.52;;
23472;SDS011;11909;52.516;13.564;2022-12-10T00:43:44;29.45;;;15.60;;
23472;SDS011;11909;52.516;13.564;2022-12-10T00:46:13;25.50;;;13.77;;
23472;SDS011;11909;52.516;13.564;2022-12-10T00:48:42;29.90;;;14.63;;
23472;SDS011;11909;52.516;13.564;2022-12-10T00:51:13;32.63;;;16.02;;
23472;SDS011;11909;52.516;13.564;2022-12-10T00:53:44;26.95;;;15.05;;
23472;SDS011;11909;52.516;13.564;2022-12-10T00:58:41;29.70;;;14.50;;
23472;SDS011;11909;52.516;13.564;2022-12-10T01:01:10;26.70;;;13.93;;
23472;SDS011;11909;52.516;13.564;2022-12-10T01:06:09;27.90;;;13.95;;
23472;SDS011;11909;52.516;13.564;2022-12-10T01:08:38;25.83;;;14.02;;
23472;SDS011;11909;52.516;13.564;2022-12-10T01:11:07;25.25;;;13.95;;
23472;SDS011;11909;52.516;13.564;2022-12-10T01:13:36;28.90;;;14.93;;
23472;SDS011;11909;52.516;13.564;2022-12-10T01:16:04;24.80;;;13.95;;
23472;SDS011;11909;52.516;13.564;2022-12-10T01:18:33;23.38;;;14.02;;
23472;SDS011;11909;52.516;13.564;2022-12-10T01:21:02;26.33;;;14.48;;
23472;SDS011;11909;52.516;13.564;2022-12-10T01:23:31;24.92;;;13.23;;
23472;SDS011;11909;52.516;13.564;2022-12-10T01:26:01;27.35;;;14.73;;
23472;SDS011;11909;52.516;13.564;2022-12-10T01:28:31;25.77;;;14.05;;
23472;SDS011;11909;52.516;13.564;2022-12-10T01:31:01;26.45;;;14.10;;
23472;SDS011;11909;52.516;13.564;2022-12-10T01:33:31;22.45;;;13.02;;
23472;SDS011;11909;52.516;13.564;2022-12-10T01:36:01;24.95;;;13.68;;
23472;SDS011;11909;52.516;13.564;2022-12-10T01:38:29;24.80;;;13.55;;
23472;SDS011;11909;52.516;13.564;2022-12-10T01:40:57;23.50;;;13.80;;
23472;SDS011;11909;52.516;13.564;2022-12-10T01:43:26;25.95;;;13.95;;
23472;SDS011;11909;52.516;13.564;2022-12-10T01:45:56;27.95;;;13.90;;
23472;SDS011;11909;52.516;13.564;2022-12-10T01:48:23;27.65;;;14.43;;
23472;SDS011;11909;52.516;13.564;2022-12-10T01:50:51;24.15;;;13.80;;
23472;SDS011;11909;52.516;13.564;2022-12-10T01:53:19;25.45;;;13.95;;
23472;SDS011;11909;52.516;13.564;2022-12-10T01:55:48;26.52;;;13.85;;
23472;SDS011;11909;52.516;13.564;2022-12-10T01:58:18;24.38;;;14.02;;
23472;SDS011;11909;52.516;13.564;2022-12-10T02:00:50;23.95;;;13.75;;
23472;SDS011;11909;52.516;13.564;2022-12-10T02:03:29;27.17;;;13.68;;
23472;SDS011;11909;52.516;13.564;2022-12-10T02:06:06;25.67;;;14.45;;
23472;SDS011;11909;52.516;13.564;2022-12-10T02:08:50;25.05;;;14.73;;
23472;SDS011;11909;52.516;13.564;2022-12-10T02:11:28;26.85;;;14.25;;
23472;SDS011;11909;52.516;13.564;2022-12-10T02:14:04;24.23;;;13.35;;
23472;SDS011;11909;52.516;13.564;2022-12-10T02:16:37;25.63;;;14.48;;
23472;SDS011;11909;52.516;13.564;2022-12-10T02:19:13;23.90;;;13.68;;
23472;SDS011;11909;52.516;13.564;2022-12-10T02:21:47;24.27;;;13.80;;
23472;SDS011;11909;52.516;13.564;2022-12-10T02:24:18;25.77;;;14.57;;
23472;SDS011;11909;52.516;13.564;2022-12-10T02:26:51;26.17;;;13.93;;
23472;SDS011;11909;52.516;13.564;2022-12-10T02:29:27;27.75;;;15.05;;
23472;SDS011;11909;52.516;13.564;2022-12-10T02:31:59;23.00;;;13.82;;
23472;SDS011;11909;52.516;13.564;2022-12-10T02:34:31;29.83;;;15.48;;
23472;SDS011;11909;52.516;13.564;2022-12-10T02:37:03;25.98;;;14.13;;
23472;SDS011;11909;52.516;13.564;2022-12-10T02:39:34;29.40;;;15.70;;
23472;SDS011;11909;52.516;13.564;2022-12-10T02:42:05;26.08;;;14.75;;
23472;SDS011;11909;52.516;13.564;2022-12-10T02:44:37;28.80;;;15.50;;
23472;SDS011;11909;52.516;13.564;2022-12-10T02:47:09;27.55;;;15.07;;
23472;SDS011;11909;52.516;13.564;2022-12-10T02:49:39;27.55;;;14.68;;
23472;SDS011;11909;52.516;13.564;2022-12-10T02:52:08;28.88;;;14.90;;
23472;SDS011;11909;52.516;13.564;2022-12-10T02:54:40;29.67;;;16.40;;
23472;SDS011;11909;52.516;13.564;2022-12-10T02:57:18;28.60;;;15.10;;
23472;SDS011;11909;52.516;13.564;2022-12-10T03:00:08;30.02;;;15.73;;
23472;SDS011;11909;52.516;13.564;2022-12-10T03:02:55;30.20;;;14.90;;
23472;SDS011;11909;52.516;13.564;2022-12-10T03:05:43;30.85;;;16.10;;
23472;SDS011;11909;52.516;13.564;2022-12-10T03:08:17;29.45;;;15.13;;
23472;SDS011;11909;52.516;13.564;2022-12-10T03:10:50;31.33;;;15.52;;
23472;SDS011;11909;52.516;13.564;2022-12-10T03:13:23;28.75;;;15.02;;
23472;SDS011;11909;52.516;13.564;2022-12-10T03:15:57;29.08;;;15.18;;
23472;SDS011;11909;52.516;13.564;2022-12-10T03:18:26;30.88;;;16.05;;
23472;SDS011;11909;52.516;13.564;2022-12-10T03:20:58;27.50;;;15.10;;
23472;SDS011;11909;52.516;13.564;2022-12-10T03:23:31;31.08;;;16.20;;
23472;SDS011;11909;52.516;13.564;2022-12-10T03:26:02;29.73;;;15.27;;
23472;SDS011;11909;52.516;13.564;2022-12-10T03:28:34;31.55;;;17.17;;
23472;SDS011;11909;52.516;13.564;2022-12-10T03:31:07;31.73;;;15.38;;
23472;SDS011;11909;52.516;13.564;2022-12-10T03:33:37;29.98;;;16.60;;
23472;SDS011;11909;52.516;13.564;2022-12-10T03:36:06;29.77;;;14.68;;
23472;SDS011;11909;52.516;13.564;2022-12-10T03:38:36;28.48;;;15.88;;
23472;SDS011;11909;52.516;13.564;2022-12-10T03:41:04;28.02;;;15.50;;
23472;SDS011;11909;52.516;13.564;2022-12-10T03:43:32;28.85;;;15.18;;
23472;SDS011;11909;52.516;13.564;2022-12-10T03:46:00;30.50;;;15.70;;
23472;SDS011;11909;52.516;13.564;2022-12-10T03:48:29;30.65;;;16.30;;
23472;SDS011;11909;52.516;13.564;2022-12-10T03:50:57;30.98;;;16.40;;
23472;SDS011;11909;52.516;13.564;2022-12-10T03:53:25;26.33;;;14.93;;
23472;SDS011;11909;52.516;13.564;2022-12-10T03:55:54;31.23;;;16.77;;
23472;SDS011;11909;52.516;13.564;2022-12-10T03:58:21;33.45;;;17.05;;
23472;SDS011;11909;52.516;13.564;2022-12-10T04:00:50;28.60;;;15.38;;
23472;SDS011;11909;52.516;13.564;2022-12-10T04:03:17;30.30;;;17.02;;
23472;SDS011;11909;52.516;13.564;2022-12-10T04:05:47;32.83;;;16.77;;
23472;SDS011;11909;52.516;13.564;2022-12-10T04:08:14;30.50;;;16.15;;
23472;SDS011;11909;52.516;13.564;2022-12-10T04:10:42;29.52;;;17.02;;
23472;SDS011;11909;52.516;13.564;2022-12-10T04:13:10;28.40;;;16.02;;
23472;SDS011;11909;52.516;13.564;2022-12-10T04:15:56;28.85;;;15.68;;
23472;SDS011;11909;52.516;13.564;2022-12-10T04:18:41;28.98;;;15.70;;
23472;SDS011;11909;52.516;13.564;2022-12-10T04:21:10;33.05;;;17.52;;
23472;SDS011;11909;52.516;13.564;2022-12-10T04:23:55;31.10;;;16.63;;
23472;SDS011;11909;52.516;13.564;2022-12-10T04:26:40;29.08;;;14.48;;
23472;SDS011;11909;52.516;13.564;2022-12-10T04:29:21;33.35;;;16.63;;
23472;SDS011;11909;52.516;13.564;2022-12-10T04:31:50;27.05;;;16.33;;
23472;SDS011;11909;52.516;13.564;2022-12-10T04:34:19;31.88;;;17.15;;
23472;SDS011;11909;52.516;13.564;2022-12-10T04:36:51;29.75;;;16.52;;
23472;SDS011;11909;52.516;13.564;2022-12-10T04:39:19;31.60;;;17.20;;
23472;SDS011;11909;52.516;13.564;2022-12-10T04:41:48;27.77;;;15.75;;
23472;SDS011;11909;52.516;13.564;2022-12-10T04:44:16;26.50;;;15.18;;
23472;SDS011;11909;52.516;13.564;2022-12-10T04:46:45;32.10;;;15.18;;
23472;SDS011;11909;52.516;13.564;2022-12-10T04:49:13;29.23;;;16.55;;
23472;SDS011;11909;52.516;13.564;2022-12-10T04:51:41;26.00;;;15.02;;
23472;SDS011;11909;52.516;13.564;2022-12-10T04:54:11;28.08;;;15.15;;
23472;SDS011;11909;52.516;13.564;2022-12-10T04:56:40;30.25;;;16.42;;
23472;SDS011;11909;52.516;13.564;2022-12-10T04:59:08;30.83;;;15.93;;
23472;SDS011;11909;52.516;13.564;2022-12-10T05:01:37;25.92;;;15.82;;
23472;SDS011;11909;52.516;13.564;2022-12-10T05:04:06;26.02;;;15.45;;
23472;SDS011;11909;52.516;13.564;2022-12-10T05:06:35;31.77;;;16.92;;
23472;SDS011;11909;52.516;13.564;2022-12-10T05:09:04;27.55;;;15.90;;
23472;SDS011;11909;52.516;13.564;2022-12-10T05:11:33;24.45;;;15.15;;
23472;SDS011;11909;52.516;13.564;2022-12-10T05:14:02;29.75;;;16.08;;
23472;SDS011;11909;52.516;13.564;2022-12-10T05:16:31;30.30;;;16.55;;
23472;SDS011;11909;52.516;13.564;2022-12-10T05:19:00;28.98;;;16.23;;
23472;SDS011;11909;52.516;13.564;2022-12-10T05:21:28;27.58;;;16.42;;
23472;SDS011;11909;52.516;13.564;2022-12-10T05:24:19;28.02;;;15.60;;
23472;SDS011;11909;52.516;13.564;2022-12-10T05:26:47;30.02;;;15.57;;
23472;SDS011;11909;52.516;13.564;2022-12-10T05:29:17;29.15;;;15.38;;
23472;SDS011;11909;52.516;13.564;2022-12-10T05:31:46;27.77;;;15.98;;
23472;SDS011;11909;52.516;13.564;2022-12-10T05:34:14;32.08;;;17.00;;
23472;SDS011;11909;52.516;13.564;2022-12-10T05:36:41;31.48;;;16.95;;
23472;SDS011;11909;52.516;13.564;2022-12-10T05:39:10;23.60;;;14.85;;
23472;SDS011;11909;52.516;13.564;2022-12-10T05:41:38;28.20;;;15.25;;
23472;SDS011;11909;52.516;13.564;2022-12-10T05:44:08;29.58;;;16.67;;
23472;SDS011;11909;52.516;13.564;2022-12-10T05:46:37;27.42;;;14.98;;
23472;SDS011;11909;52.516;13.564;2022-12-10T05:49:05;29.10;;;14.88;;
23472;SDS011;11909;52.516;13.564;2022-12-10T05:51:35;26.55;;;14.52;;
23472;SDS011;11909;52.516;13.564;2022-12-10T05:54:04;30.67;;;15.20;;
23472;SDS011;11909;52.516;13.564;2022-12-10T05:56:33;27.35;;;15.68;;
23472;SDS011;11909;52.516;13.564;2022-12-10T05:59:02;26.52;;;14.75;;
23472;SDS011;11909;52.516;13.564;2022-12-10T06:01:41;28.33;;;13.85;;
23472;SDS011;11909;52.516;13.564;2022-12-10T06:04:09;27.45;;;15.93;;
23472;SDS011;11909;52.516;13.564;2022-12-10T06:06:37;26.30;;;14.45;;
23472;SDS011;11909;52.516;13.564;2022-12-10T06:09:07;29.02;;;16.63;;
23472;SDS011;11909;52.516;13.564;2022-12-10T06:11:38;30.23;;;15.70;;
23472;SDS011;11909;52.516;13.564;2022-12-10T06:14:06;25.75;;;15.82;;
23472;SDS011;11909;52.516;13.564;2022-12-10T06:16:34;31.05;;;16.70;;
23472;SDS011;11909;52.516;13.564;2022-12-10T06:19:03;23.00;;;14.23;;
23472;SDS011;11909;52.516;13.564;2022-12-10T06:21:31;25.88;;;14.75;;
23472;SDS011;11909;52.516;13.564;2022-12-10T06:23:58;25.20;;;15.57;;
23472;SDS011;11909;52.516;13.564;2022-12-10T06:26:26;24.73;;;13.95;;
23472;SDS011;11909;52.516;13.564;2022-12-10T06:28:54;23.63;;;14.52;;
23472;SDS011;11909;52.516;13.564;2022-12-10T06:31:22;25.25;;;14.90;;
23472;SDS011;11909;52.516;13.564;2022-12-10T06:33:50;24.70;;;14.02;;
23472;SDS011;11909;52.516;13.564;2022-12-10T06:36:20;22.23;;;14.30;;
23472;SDS011;11909;52.516;13.564;2022-12-10T06:38:48;22.30;;;14.25;;
23472;SDS011;11909;52.516;13.564;2022-12-10T06:41:16;23.08;;;14.50;;
23472;SDS011;11909;52.516;13.564;2022-12-10T06:46:18;22.35;;;13.57;;
23472;SDS011;11909;52.516;13.564;2022-12-10T06:48:47;21.83;;;13.40;;
23472;SDS011;11909;52.516;13.564;2022-12-10T06:51:15;23.20;;;14.25;;
23472;SDS011;11909;52.516;13.564;2022-12-10T06:53:45;26.35;;;14.82;;
23472;SDS011;11909;52.516;13.564;2022-12-10T06:56:14;24.43;;;14.07;;
23472;SDS011;11909;52.516;13.564;2022-12-10T06:58:43;24.17;;;13.85;;
23472;SDS011;11909;52.516;13.564;2022-12-10T07:01:12;23.90;;;14.32;;
23472;SDS011;11909;52.516;13.564;2022-12-10T07:03:41;19.77;;;12.70;;
23472;SDS011;11909;52.516;13.564;2022-12-10T07:06:10;24.52;;;14.30;;
23472;SDS011;11909;52.516;13.564;2022-12-10T07:08:39;20.33;;;12.93;;
23472;SDS011;11909;52.516;13.564;2022-12-10T07:11:09;21.55;;;13.35;;
23472;SDS011;11909;52.516;13.564;2022-12-10T07:13:38;19.95;;;12.70;;
23472;SDS011;11909;52.516;13.564;2022-12-10T07:16:11;23.00;;;13.15;;
23472;SDS011;11909;52.516;13.564;2022-12-10T07:18:41;20.73;;;13.02;;
23472;SDS011;11909;52.516;13.564;2022-12-10T07:21:17;20.63;;;13.32;;
23472;SDS011;11909;52.516;13.564;2022-12-10T07:23:47;21.13;;;12.73;;
23472;SDS011;11909;52.516;13.564;2022-12-10T07:26:17;18.08;;;12.55;;
23472;SDS011;11909;52.516;13.564;2022-12-10T07:28:45;18.23;;;11.77;;
23472;SDS011;11909;52.516;13.564;2022-12-10T07:31:19;19.58;;;12.25;;
23472;SDS011;11909;52.516;13.564;2022-12-10T07:33:47;18.40;;;12.30;;
23472;SDS011;11909;52.516;13.564;2022-12-10T07:36:16;18.17;;;12.00;;
23472;SDS011;11909;52.516;13.564;2022-12-10T07:38:43;20.17;;;12.60;;
23472;SDS011;11909;52.516;13.564;2022-12-10T07:41:12;19.13;;;11.20;;
23472;SDS011;11909;52.516;13.564;2022-12-10T07:43:42;17.98;;;12.07;;
23472;SDS011;11909;52.516;13.564;2022-12-10T07:48:40;19.35;;;12.52;;
23472;SDS011;11909;52.516;13.564;2022-12-10T07:51:09;17.42;;;11.77;;
23472;SDS011;11909;52.516;13.564;2022-12-10T07:53:37;19.48;;;12.45;;
23472;SDS011;11909;52.516;13.564;2022-12-10T07:56:05;16.70;;;11.40;;
23472;SDS011;11909;52.516;13.564;2022-12-10T07:58:34;19.70;;;12.32;;
23472;SDS011;11909;52.516;13.564;2022-12-10T08:01:06;19.52;;;12.23;;
23472;SDS011;11909;52.516;13.564;2022-12-10T08:03:35;18.65;;;12.18;;
23472;SDS011;11909;52.516;13.564;2022-12-10T08:06:04;19.13;;;12.65;;
23472;SDS011;11909;52.516;13.564;2022-12-10T08:08:33;18.10;;;11.68;;
23472;SDS011;11909;52.516;13.564;2022-12-10T08:11:02;18.17;;;12.65;;
23472;SDS011;11909;52.516;13.564;2022-12-10T08:13:32;19.73;;;12.37;;
23472;SDS011;11909;52.516;13.564;2022-12-10T08:16:00;18.45;;;12.82;;
23472;SDS011;11909;52.516;13.564;2022-12-10T08:18:31;18.45;;;12.30;;
23472;SDS011;11909;52.516;13.564;2022-12-10T08:21:02;18.08;;;11.73;;
23472;SDS011;11909;52.516;13.564;2022-12-10T08:23:31;18.25;;;11.10;;
23472;SDS011;11909;52.516;13.564;2022-12-10T08:26:01;18.42;;;11.98;;
23472;SDS011;11909;52.516;13.564;2022-12-10T08:28:30;19.77;;;11.95;;
23472;SDS011;11909;52.516;13.564;2022-12-10T08:30:57;20.50;;;12.65;;
23472;SDS011;11909;52.516;13.564;2022-12-10T08:33:25;18.48;;;12.50;;
23472;SDS011;11909;52.516;13.564;2022-12-10T08:35:58;18.98;;;12.18;;
23472;SDS011;11909;52.516;13.564;2022-12-10T08:38:26;18.27;;;12.55;;
23472;SDS011;11909;52.516;13.564;2022-12-10T08:40:54;16.70;;;12.27;;
23472;SDS011;11909;52.516;13.564;2022-12-10T08:43:22;17.77;;;12.10;;
23472;SDS011;11909;52.516;13.564;2022-12-10T08:45:50;19.20;;;13.30;;
23472;SDS011;11909;52.516;13.564;2022-12-10T08:48:18;21.27;;;13.68;;
23472;SDS011;11909;52.516;13.564;2022-12-10T08:50:46;16.00;;;11.43;;
23472;SDS011;11909;52.516;13.564;2022-12-10T08:53:15;19.33;;;12.43;;
23472;SDS011;11909;52.516;13.564;2022-12-10T08:55:42;20.50;;;12.98;;
23472;SDS011;11909;52.516;13.564;2022-12-10T08:58:14;20.40;;;13.80;;
23472;SDS011;11909;52.516;13.564;2022-12-10T09:00:42;17.25;;;11.15;;
23472;SDS011;11909;52.516;13.564;2022-12-10T09:03:10;20.17;;;13.35;;
23472;SDS011;11909;52.516;13.564;2022-12-10T09:05:37;18.27;;;12.40;;
23472;SDS011;11909;52.516;13.564;2022-12-10T09:08:05;20.05;;;12.57;;
23472;SDS011;11909;52.516;13.564;2022-12-10T09:10:36;19.13;;;12.77;;
23472;SDS011;11909;52.516;13.564;2022-12-10T09:13:05;21.40;;;13.02;;
23472;SDS011;11909;52.516;13.564;2022-12-10T09:15:33;19.60;;;13.40;;
23472;SDS011;11909;52.516;13.564;2022-12-10T09:18:00;17.98;;;12.43;;
23472;SDS011;11909;52.516;13.564;2022-12-10T09:20:28;17.33;;;11.30;;
23472;SDS011;11909;52.516;13.564;2022-12-10T09:22:56;18.65;;;12.95;;
23472;SDS011;11909;52.516;13.564;2022-12-10T09:25:23;18.30;;;12.35;;
23472;SDS011;11909;52.516;13.564;2022-12-10T09:27:52;19.52;;;13.23;;
23472;SDS011;11909;52.516;13.564;2022-12-10T09:30:20;19.00;;;13.30;;
23472;SDS011;11909;52.516;13.564;2022-12-10T09:32:48;20.17;;;13.18;;
23472;SDS011;11909;52.516;13.564;2022-12-10T09:35:15;20.27;;;13.93;;
23472;SDS011;11909;52.516;13.564;2022-12-10T09:37:43;20.95;;;13.90;;
23472;SDS011;11909;52.516;13.564;2022-12-10T09:40:14;19.38;;;13.65;;
23472;SDS011;11909;52.516;13.564;2022-12-10T09:42:44;20.23;;;12.80;;
23472;SDS011;11909;52.516;13.564;2022-12-10T09:45:20;21.33;;;13.30;;
23472;SDS011;11909;52.516;13.564;2022-12-10T09:47:54;20.67;;;13.68;;
23472;SDS011;11909;52.516;13.564;2022-12-10T09:50:29;20.20;;;13.40;;
23472;SDS011;11909;52.516;13.564;2022-12-10T09:53:02;21.15;;;13.52;;
23472;SDS011;11909;52.516;13.564;2022-12-10T09:55:33;16.98;;;12.07;;
23472;SDS011;11909;52.516;13.564;2022-12-10T09:58:04;20.80;;;13.63;;
23472;SDS011;11909;52.516;13.564;2022-12-10T10:00:38;21.38;;;13.43;;
23472;SDS011;11909;52.516;13.564;2022-12-10T10:03:09;19.30;;;13.35;;
23472;SDS011;11909;52.516;13.564;2022-12-10T10:05:40;20.73;;;14.02;;
23472;SDS011;11909;52.516;13.564;2022-12-10T10:08:12;17.42;;;12.98;;
23472;SDS011;11909;52.516;13.564;2022-12-10T10:10:45;17.52;;;12.77;;
23472;SDS011;11909;52.516;13.564;2022-12-10T10:13:15;20.48;;;14.20;;
23472;SDS011;11909;52.516;13.564;2022-12-10T10:15:54;20.17;;;13.48;;
23472;SDS011;11909;52.516;13.564;2022-12-10T10:18:23;19.48;;;13.52;;
23472;SDS011;11909;52.516;13.564;2022-12-10T10:21:00;21.00;;;14.10;;
23472;SDS011;11909;52.516;13.564;2022-12-10T10:23:28;21.33;;;13.80;;
23472;SDS011;11909;52.516;13.564;2022-12-10T10:25:56;21.00;;;13.73;;
23472;SDS011;11909;52.516;13.564;2022-12-10T10:28:24;21.13;;;13.75;;
23472;SDS011;11909;52.516;13.564;2022-12-10T10:30:51;21.35;;;13.63;;
23472;SDS011;11909;52.516;13.564;2022-12-10T10:33:22;23.13;;;14.65;;
23472;SDS011;11909;52.516;13.564;2022-12-10T10:35:52;21.50;;;13.18;;
23472;SDS011;11909;52.516;13.564;2022-12-10T10:38:23;17.85;;;12.25;;
23472;SDS011;11909;52.516;13.564;2022-12-10T10:40:53;18.50;;;13.70;;
23472;SDS011;11909;52.516;13.564;2022-12-10T10:45:56;21.30;;;13.90;;
23472;SDS011;11909;52.516;13.564;2022-12-10T10:48:27;23.48;;;14.73;;
23472;SDS011;11909;52.516;13.564;2022-12-10T10:51:04;22.40;;;14.77;;
23472;SDS011;11909;52.516;13.564;2022-12-10T10:53:40;22.27;;;15.05;;
23472;SDS011;11909;52.516;13.564;2022-12-10T10:56:10;25.15;;;16.02;;
23472;SDS011;11909;52.516;13.564;2022-12-10T10:58:47;26.02;;;16.55;;
23472;SDS011;11909;52.516;13.564;2022-12-10T11:01:20;24.73;;;16.65;;
23472;SDS011;11909;52.516;13.564;2022-12-10T11:03:53;25.20;;;16.02;;
23472;SDS011;11909;52.516;13.564;2022-12-10T11:06:22;22.30;;;14.90;;
23472;SDS011;11909;52.516;13.564;2022-12-10T11:08:51;28.15;;;16.58;;
23472;SDS011;11909;52.516;13.564;2022-12-10T11:11:22;20.35;;;14.00;;
23472;SDS011;11909;52.516;13.564;2022-12-10T11:14:12;18.67;;;13.70;;
23472;SDS011;11909;52.516;13.564;2022-12-10T11:16:42;21.83;;;13.57;;
23472;SDS011;11909;52.516;13.564;2022-12-10T11:19:16;18.75;;;13.32;;
23472;SDS011;11909;52.516;13.564;2022-12-10T11:21:47;22.45;;;14.07;;
23472;SDS011;11909;52.516;13.564;2022-12-10T11:24:16;20.67;;;13.77;;
23472;SDS011;11909;52.516;13.564;2022-12-10T11:29:24;24.60;;;15.75;;
23472;SDS011;11909;52.516;13.564;2022-12-10T11:32:20;24.75;;;15.07;;
23472;SDS011;11909;52.516;13.564;2022-12-10T11:35:01;23.83;;;14.55;;
23472;SDS011;11909;52.516;13.564;2022-12-10T11:37:38;23.30;;;14.23;;
23472;SDS011;11909;52.516;13.564;2022-12-10T11:40:15;22.17;;;14.38;;
23472;SDS011;11909;52.516;13.564;2022-12-10T11:42:58;21.15;;;14.05;;
23472;SDS011;11909;52.516;13.564;2022-12-10T11:45:51;22.92;;;14.82;;
23472;SDS011;11909;52.516;13.564;2022-12-10T11:48:39;25.20;;;15.75;;
23472;SDS011;11909;52.516;13.564;2022-12-10T11:51:23;20.17;;;13.93;;
23472;SDS011;11909;52.516;13.564;2022-12-10T11:54:02;20.95;;;15.00;;
23472;SDS011;11909;52.516;13.564;2022-12-10T11:56:39;20.63;;;13.80;;
23472;SDS011;11909;52.516;13.564;2022-12-10T11:59:14;21.27;;;14.95;;
23472;SDS011;11909;52.516;13.564;2022-12-10T12:01:51;22.15;;;15.18;;
23472;SDS011;11909;52.516;13.564;2022-12-10T12:04:37;25.48;;;16.13;;
23472;SDS011;11909;52.516;13.564;2022-12-10T12:07:30;20.73;;;14.43;;
23472;SDS011;11909;52.516;13.564;2022-12-10T12:10:17;25.70;;;15.32;;
23472;SDS011;11909;52.516;13.564;2022-12-10T12:12:57;19.77;;;13.60;;
23472;SDS011;11909;52.516;13.564;2022-12-10T12:15:28;23.45;;;15.90;;
23472;SDS011;11909;52.516;13.564;2022-12-10T12:17:59;23.17;;;15.63;;
23472;SDS011;11909;52.516;13.564;2022-12-10T12:20:33;23.65;;;15.57;;
23472;SDS011;11909;52.516;13.564;2022-12-10T12:23:06;23.65;;;15.85;;
23472;SDS011;11909;52.516;13.564;2022-12-10T12:25:44;37.20;;;23.35;;
23472;SDS011;11909;52.516;13.564;2022-12-10T12:28:14;41.58;;;23.00;;
23472;SDS011;11909;52.516;13.564;2022-12-10T12:30:48;25.48;;;17.25;;
23472;SDS011;11909;52.516;13.564;2022-12-10T12:33:26;24.33;;;15.98;;
23472;SDS011;11909;52.516;13.564;2022-12-10T12:35:58;25.88;;;16.90;;
23472;SDS011;11909;52.516;13.564;2022-12-10T12:38:31;25.58;;;16.55;;
23472;SDS011;11909;52.516;13.564;2022-12-10T12:41:05;28.85;;;17.90;;
23472;SDS011;11909;52.516;13.564;2022-12-10T12:43:42;24.38;;;16.08;;
23472;SDS011;11909;52.516;13.564;2022-12-10T12:46:16;28.38;;;18.10;;
23472;SDS011;11909;52.516;13.564;2022-12-10T12:48:50;29.40;;;18.50;;
23472;SDS011;11909;52.516;13.564;2022-12-10T12:51:26;29.30;;;19.10;;
23472;SDS011;11909;52.516;13.564;2022-12-10T12:53:59;30.27;;;18.38;;
23472;SDS011;11909;52.516;13.564;2022-12-10T12:56:38;26.92;;;17.55;;
23472;SDS011;11909;52.516;13.564;2022-12-10T12:59:25;24.73;;;16.70;;
23472;SDS011;11909;52.516;13.564;2022-12-10T13:02:06;23.20;;;15.95;;
23472;SDS011;11909;52.516;13.564;2022-12-10T13:04:42;27.33;;;16.40;;
23472;SDS011;11909;52.516;13.564;2022-12-10T13:07:27;25.52;;;16.67;;
23472;SDS011;11909;52.516;13.564;2022-12-10T13:13:05;23.73;;;15.65;;
23472;SDS011;11909;52.516;13.564;2022-12-10T13:15:36;21.50;;;15.05;;
23472;SDS011;11909;52.516;13.564;2022-12-10T13:18:33;25.77;;;16.33;;
23472;SDS011;11909;52.516;13.564;2022-12-10T13:24:08;24.48;;;16.30;;
23472;SDS011;11909;52.516;13.564;2022-12-10T13:26:40;25.08;;;15.95;;
23472;SDS011;11909;52.516;13.564;2022-12-10T13:29:29;23.95;;;15.95;;
23472;SDS011;11909;52.516;13.564;2022-12-10T13:32:15;21.73;;;14.57;;
23472;SDS011;11909;52.516;13.564;2022-12-10T13:34:44;24.70;;;15.05;;
23472;SDS011;11909;52.516;13.564;2022-12-10T13:37:17;26.02;;;15.32;;
23472;SDS011;11909;52.516;13.564;2022-12-10T13:40:01;23.52;;;14.90;;
23472;SDS011;11909;52.516;13.564;2022-12-10T13:42:42;25.08;;;14.77;;
23472;SDS011;11909;52.516;13.564;2022-12-10T13:45:30;25.30;;;15.18;;
23472;SDS011;11909;52.516;13.564;2022-12-10T13:51:17;23.33;;;14.57;;
23472;SDS011;11909;52.516;13.564;2022-12-10T13:54:04;22.48;;;14.15;;
23472;SDS011;11909;52.516;13.564;2022-12-10T13:56:47;23.42;;;14.20;;
23472;SDS011;11909;52.516;13.564;2022-12-10T13:59:26;22.80;;;14.23;;
23472;SDS011;11909;52.516;13.564;2022-12-10T14:02:06;21.08;;;13.55;;
23472;SDS011;11909;52.516;13.564;2022-12-10T14:04:56;22.45;;;13.45;;
23472;SDS011;11909;52.516;13.564;2022-12-10T14:07:47;26.38;;;14.73;;
23472;SDS011;11909;52.516;13.564;2022-12-10T14:10:18;24.33;;;14.25;;
23472;SDS011;11909;52.516;13.564;2022-12-10T14:12:52;25.35;;;14.07;;
23472;SDS011;11909;52.516;13.564;2022-12-10T14:15:22;25.15;;;15.15;;
23472;SDS011;11909;52.516;13.564;2022-12-10T14:17:59;26.15;;;14.32;;
23472;SDS011;11909;52.516;13.564;2022-12-10T14:20:29;24.80;;;14.13;;
23472;SDS011;11909;52.516;13.564;2022-12-10T14:23:02;26.83;;;15.23;;
23472;SDS011;11909;52.516;13.564;2022-12-10T14:25:45;23.77;;;13.63;;
23472;SDS011;11909;52.516;13.564;2022-12-10T14:28:16;25.27;;;14.65;;
23472;SDS011;11909;52.516;13.564;2022-12-10T14:30:45;34.60;;;15.52;;
23472;SDS011;11909;52.516;13.564;2022-12-10T14:33:16;27.02;;;15.05;;
23472;SDS011;11909;52.516;13.564;2022-12-10T14:35:46;27.05;;;15.70;;
23472;SDS011;11909;52.516;13.564;2022-12-10T14:38:16;28.40;;;15.77;;
23472;SDS011;11909;52.516;13.564;2022-12-10T14:40:47;32.15;;;16.05;;
23472;SDS011;11909;52.516;13.564;2022-12-10T14:43:18;27.73;;;14.43;;
23472;SDS011;11909;52.516;13.564;2022-12-10T14:45:49;27.85;;;14.30;;
23472;SDS011;11909;52.516;13.564;2022-12-10T14:48:21;36.92;;;17.33;;
23472;SDS011;11909;52.516;13.564;2022-12-10T14:50:50;32.72;;;16.13;;
23472;SDS011;11909;52.516;13.564;2022-12-10T14:53:19;54.70;;;26.45;;
23472;SDS011;11909;52.516;13.564;2022-12-10T14:55:55;40.63;;;16.23;;
23472;SDS011;11909;52.516;13.564;2022-12-10T14:58:29;32.95;;;15.98;;
23472;SDS011;11909;52.516;13.564;2022-12-10T15:01:09;32.80;;;15.43;;